createdAt,value
2018-01-30T18:19:28.399Z,20.60
2018-01-30T18:21:55.800Z,20.00
2018-01-30T18:24:22.170Z,19.40
2018-01-30T18:26:51.078Z,18.90
2018-01-30T18:29:27.435Z,18.80
2018-01-30T18:31:54.018Z,18.70
2018-01-30T18:34:31.230Z,18.60
2018-01-30T18:37:00.467Z,18.60
2018-01-30T18:39:31.852Z,18.60
2018-01-30T18:42:00.286Z,18.60
2018-01-30T18:44:28.424Z,18.60
2018-01-30T18:47:03.805Z,18.60
2018-01-30T18:49:30.260Z,18.60
2018-01-30T18:51:57.725Z,18.60
2018-01-30T18:54:32.019Z,18.50
2018-01-30T18:56:58.593Z,18.50
2018-01-30T18:59:24.973Z,18.50
2018-01-30T19:01:52.110Z,18.50
2018-01-30T19:04:18.477Z,18.50
2018-01-30T19:06:45.543Z,18.50
2018-01-30T19:09:12.604Z,18.50
2018-01-30T19:11:40.723Z,18.50
2018-01-30T19:14:19.625Z,18.40
2018-01-30T19:16:46.022Z,18.50
2018-01-30T19:19:12.434Z,18.50
2018-01-30T19:21:38.851Z,18.40
2018-01-30T19:24:05.216Z,18.50
2018-01-30T19:26:31.726Z,18.50
2018-01-30T19:28:58.094Z,18.40
2018-01-30T19:31:25.236Z,18.40
2018-01-30T19:33:51.568Z,18.40
2018-01-30T19:36:17.947Z,18.40
2018-01-30T19:38:45.322Z,18.40
2018-01-30T19:41:11.783Z,18.40
2018-01-30T19:43:38.118Z,18.40
2018-01-30T19:46:04.493Z,18.40
2018-01-30T19:48:30.815Z,18.40
2018-01-30T19:50:57.156Z,18.40
2018-01-30T19:53:24.532Z,18.40
2018-01-30T19:55:50.883Z,18.40
2018-01-30T19:58:17.196Z,18.40
2018-01-30T20:00:44.353Z,18.40
2018-01-30T20:03:10.734Z,18.40
2018-01-30T20:05:37.934Z,18.40
2018-01-30T20:08:04.304Z,18.30
2018-01-30T20:10:31.452Z,18.40
2018-01-30T20:12:58.566Z,18.40
2018-01-30T20:15:41.472Z,18.40
2018-01-30T20:18:07.811Z,18.40
2018-01-30T20:20:34.154Z,18.40
2018-01-30T20:23:00.498Z,18.40
2018-01-30T20:25:26.851Z,18.40
2018-01-30T20:27:53.223Z,18.40
2018-01-30T20:30:19.538Z,18.40
2018-01-30T20:32:45.885Z,18.40
2018-01-30T20:35:12.205Z,18.40
2018-01-30T20:37:39.367Z,18.40
2018-01-30T20:40:07.431Z,18.40
2018-01-30T20:42:33.756Z,18.30
2018-01-30T20:45:00.071Z,18.40
2018-01-30T20:47:26.416Z,18.30
2018-01-30T20:49:52.961Z,18.40
2018-01-30T20:52:19.316Z,18.40
2018-01-30T20:54:47.258Z,18.40
2018-01-30T20:57:13.750Z,18.40
2018-01-30T20:59:40.367Z,18.40
2018-01-30T21:02:06.703Z,18.40
2018-01-30T21:04:33.814Z,18.40
2018-01-30T21:07:00.206Z,18.30
2018-01-30T21:09:27.185Z,18.40
2018-01-30T21:11:53.664Z,18.40
2018-01-30T21:14:30.894Z,18.30
2018-01-30T21:16:57.964Z,18.40
2018-01-30T21:19:25.085Z,18.30
2018-01-30T21:21:51.425Z,18.30
2018-01-30T21:24:17.791Z,18.30
2018-01-30T21:26:44.225Z,18.30
2018-01-30T21:29:12.279Z,18.40
2018-01-30T21:31:42.507Z,18.40
2018-01-30T21:34:08.852Z,18.30
2018-01-30T21:36:35.247Z,18.30
2018-01-30T21:39:02.674Z,18.30
2018-01-30T21:41:29.074Z,18.30
2018-01-30T21:44:01.118Z,18.30
2018-01-30T21:46:27.472Z,18.30
2018-01-30T21:48:54.529Z,18.30
2018-01-30T21:51:22.899Z,18.30
2018-01-30T21:53:49.274Z,18.30
2018-01-30T21:56:16.104Z,18.30
2018-01-30T21:58:43.259Z,18.30
2018-01-30T22:01:09.645Z,18.30
2018-01-30T22:03:37.095Z,18.30
2018-01-30T22:06:03.448Z,18.30
2018-01-30T22:08:29.784Z,18.30
2018-01-30T22:10:58.178Z,18.30
2018-01-30T22:13:30.479Z,18.30
2018-01-30T22:16:09.734Z,18.30
2018-01-30T22:18:43.747Z,18.30
2018-01-30T22:21:10.112Z,18.30
2018-01-30T22:23:37.213Z,18.30
2018-01-30T22:26:12.535Z,18.30
2018-01-30T22:28:38.850Z,18.30
2018-01-30T22:31:05.431Z,18.30
2018-01-30T22:33:32.777Z,18.30
2018-01-30T22:36:06.838Z,18.30
2018-01-30T22:38:43.222Z,18.30
2018-01-30T22:41:09.589Z,18.30
2018-01-30T22:43:36.948Z,18.30
2018-01-30T22:46:03.575Z,18.30
